sensor_id;sensor_type;location;lat;lon;timestamp;P1;durP1;ratioP1;P2;durP2;ratioP2
11111;SDS011;5609;49.466;8.468;2022-09-03T00:00:42;4.30;;;3.30;;
11111;SDS011;5609;49.466;8.468;2022-09-03T00:03:17;5.33;;;4.00;;
11111;SDS011;5609;49.466;8.468;2022-09-03T00:05:49;3.97;;;2.57;;
11111;SDS011;5609;49.466;8.468;2022-09-03T00:08:33;2.53;;;2.20;;
11111;SDS011;5609;49.466;8.468;2022-09-03T00:11:09;1.87;;;1.70;;
11111;SDS011;5609;49.466;8.468;2022-09-03T00:13:41;2.10;;;1.23;;
11111;SDS011;5609;49.466;8.468;2022-09-03T00:16:12;3.13;;;1.70;;
11111;SDS011;5609;49.466;8.468;2022-09-03T00:18:44;3.97;;;2.20;;
11111;SDS011;5609;49.466;8.468;2022-09-03T00:21:14;4.30;;;2.90;;
11111;SDS011;5609;49.466;8.468;2022-09-03T00:23:46;2.20;;;1.53;;
11111;SDS011;5609;49.466;8.468;2022-09-03T00:26:17;1.40;;;1.20;;
11111;SDS011;5609;49.466;8.468;2022-09-03T00:28:50;2.70;;;1.40;;
11111;SDS011;5609;49.466;8.468;2022-09-03T00:31:27;2.27;;;1.77;;
11111;SDS011;5609;49.466;8.468;2022-09-03T00:33:59;2.03;;;1.27;;
11111;SDS011;5609;49.466;8.468;2022-09-03T00:36:31;2.67;;;2.10;;
11111;SDS011;5609;49.466;8.468;2022-09-03T00:39:06;3.07;;;1.80;;
11111;SDS011;5609;49.466;8.468;2022-09-03T00:41:35;1.77;;;1.47;;
11111;SDS011;5609;49.466;8.468;2022-09-03T00:46:58;2.37;;;1.17;;
11111;SDS011;5609;49.466;8.468;2022-09-03T00:49:35;1.20;;;1.10;;
11111;SDS011;5609;49.466;8.468;2022-09-03T00:52:21;1.23;;;1.13;;
11111;SDS011;5609;49.466;8.468;2022-09-03T00:55:02;2.73;;;2.00;;
11111;SDS011;5609;49.466;8.468;2022-09-03T00:57:40;2.67;;;1.50;;
11111;SDS011;5609;49.466;8.468;2022-09-03T01:00:14;1.77;;;1.20;;
11111;SDS011;5609;49.466;8.468;2022-09-03T01:02:50;3.17;;;1.83;;
11111;SDS011;5609;49.466;8.468;2022-09-03T01:05:26;1.97;;;1.70;;
11111;SDS011;5609;49.466;8.468;2022-09-03T01:08:05;2.43;;;1.60;;
11111;SDS011;5609;49.466;8.468;2022-09-03T01:10:44;1.77;;;1.60;;
11111;SDS011;5609;49.466;8.468;2022-09-03T01:13:20;1.53;;;1.43;;
11111;SDS011;5609;49.466;8.468;2022-09-03T01:15:52;1.50;;;1.40;;
11111;SDS011;5609;49.466;8.468;2022-09-03T01:18:32;2.40;;;1.57;;
11111;SDS011;5609;49.466;8.468;2022-09-03T01:21:13;2.50;;;2.30;;
11111;SDS011;5609;49.466;8.468;2022-09-03T01:23:57;1.90;;;1.10;;
11111;SDS011;5609;49.466;8.468;2022-09-03T01:26:57;1.47;;;1.37;;
11111;SDS011;5609;49.466;8.468;2022-09-03T01:29:37;2.97;;;1.40;;
11111;SDS011;5609;49.466;8.468;2022-09-03T01:32:10;2.00;;;1.40;;
11111;SDS011;5609;49.466;8.468;2022-09-03T01:34:47;2.30;;;1.30;;
11111;SDS011;5609;49.466;8.468;2022-09-03T01:37:22;3.10;;;1.30;;
11111;SDS011;5609;49.466;8.468;2022-09-03T01:40:00;2.03;;;1.50;;
11111;SDS011;5609;49.466;8.468;2022-09-03T01:42:32;1.87;;;1.40;;
11111;SDS011;5609;49.466;8.468;2022-09-03T01:48:13;2.33;;;1.30;;
11111;SDS011;5609;49.466;8.468;2022-09-03T01:50:52;2.37;;;1.40;;
11111;SDS011;5609;49.466;8.468;2022-09-03T01:53:27;3.10;;;1.67;;
11111;SDS011;5609;49.466;8.468;2022-09-03T01:56:10;1.73;;;1.40;;
11111;SDS011;5609;49.466;8.468;2022-09-03T01:58:46;2.13;;;1.47;;
11111;SDS011;5609;49.466;8.468;2022-09-03T02:01:23;2.33;;;1.37;;
11111;SDS011;5609;49.466;8.468;2022-09-03T02:03:54;2.97;;;2.03;;
11111;SDS011;5609;49.466;8.468;2022-09-03T02:06:24;1.40;;;1.30;;
11111;SDS011;5609;49.466;8.468;2022-09-03T02:08:50;1.50;;;1.20;;
11111;SDS011;5609;49.466;8.468;2022-09-03T02:11:17;2.97;;;1.30;;
11111;SDS011;5609;49.466;8.468;2022-09-03T02:13:46;1.97;;;1.30;;
11111;SDS011;5609;49.466;8.468;2022-09-03T02:16:16;2.07;;;1.40;;
11111;SDS011;5609;49.466;8.468;2022-09-03T02:18:50;2.63;;;1.70;;
11111;SDS011;5609;49.466;8.468;2022-09-03T02:21:20;2.07;;;1.50;;
11111;SDS011;5609;49.466;8.468;2022-09-03T02:23:49;1.90;;;1.30;;
11111;SDS011;5609;49.466;8.468;2022-09-03T02:26:17;3.33;;;1.50;;
11111;SDS011;5609;49.466;8.468;2022-09-03T02:28:47;2.33;;;1.37;;
11111;SDS011;5609;49.466;8.468;2022-09-03T02:31:14;1.87;;;1.30;;
11111;SDS011;5609;49.466;8.468;2022-09-03T02:33:43;1.23;;;1.13;;
11111;SDS011;5609;49.466;8.468;2022-09-03T02:36:14;2.10;;;1.30;;
11111;SDS011;5609;49.466;8.468;2022-09-03T02:38:44;2.37;;;1.33;;
11111;SDS011;5609;49.466;8.468;2022-09-03T02:41:12;1.77;;;1.40;;
11111;SDS011;5609;49.466;8.468;2022-09-03T02:43:41;2.90;;;1.40;;
11111;SDS011;5609;49.466;8.468;2022-09-03T02:46:13;1.77;;;1.30;;
11111;SDS011;5609;49.466;8.468;2022-09-03T02:48:43;1.87;;;1.60;;
11111;SDS011;5609;49.466;8.468;2022-09-03T02:51:09;1.60;;;1.50;;
11111;SDS011;5609;49.466;8.468;2022-09-03T02:53:38;1.63;;;1.30;;
11111;SDS011;5609;49.466;8.468;2022-09-03T02:56:05;1.20;;;1.10;;
11111;SDS011;5609;49.466;8.468;2022-09-03T02:58:32;2.00;;;1.13;;
11111;SDS011;5609;49.466;8.468;2022-09-03T03:00:59;2.17;;;1.20;;
11111;SDS011;5609;49.466;8.468;2022-09-03T03:03:26;2.27;;;1.37;;
11111;SDS011;5609;49.466;8.468;2022-09-03T03:05:53;1.87;;;1.27;;
11111;SDS011;5609;49.466;8.468;2022-09-03T03:08:22;1.50;;;1.30;;
11111;SDS011;5609;49.466;8.468;2022-09-03T03:10:53;1.27;;;1.17;;
11111;SDS011;5609;49.466;8.468;2022-09-03T03:13:22;3.00;;;1.40;;
11111;SDS011;5609;49.466;8.468;2022-09-03T03:15:49;1.83;;;1.30;;
11111;SDS011;5609;49.466;8.468;2022-09-03T03:18:16;1.93;;;1.33;;
11111;SDS011;5609;49.466;8.468;2022-09-03T03:20:44;1.60;;;1.50;;
11111;SDS011;5609;49.466;8.468;2022-09-03T03:23:12;1.63;;;1.30;;
11111;SDS011;5609;49.466;8.468;2022-09-03T03:25:39;3.00;;;1.20;;
11111;SDS011;5609;49.466;8.468;2022-09-03T03:28:07;2.23;;;1.13;;
11111;SDS011;5609;49.466;8.468;2022-09-03T03:30:36;1.73;;;1.33;;
11111;SDS011;5609;49.466;8.468;2022-09-03T03:33:04;2.70;;;1.40;;
11111;SDS011;5609;49.466;8.468;2022-09-03T03:35:30;2.10;;;1.40;;
11111;SDS011;5609;49.466;8.468;2022-09-03T03:37:57;1.63;;;1.40;;
11111;SDS011;5609;49.466;8.468;2022-09-03T03:40:24;1.80;;;1.60;;
11111;SDS011;5609;49.466;8.468;2022-09-03T03:42:51;2.03;;;1.50;;
11111;SDS011;5609;49.466;8.468;2022-09-03T03:45:20;1.90;;;1.70;;
11111;SDS011;5609;49.466;8.468;2022-09-03T03:47:47;1.70;;;1.60;;
11111;SDS011;5609;49.466;8.468;2022-09-03T03:50:13;2.07;;;1.70;;
11111;SDS011;5609;49.466;8.468;2022-09-03T03:52:41;3.10;;;1.60;;
11111;SDS011;5609;49.466;8.468;2022-09-03T03:55:08;1.50;;;1.40;;
11111;SDS011;5609;49.466;8.468;2022-09-03T03:57:35;1.73;;;1.40;;
11111;SDS011;5609;49.466;8.468;2022-09-03T04:00:02;1.73;;;1.63;;
11111;SDS011;5609;49.466;8.468;2022-09-03T04:02:31;2.33;;;1.30;;
11111;SDS011;5609;49.466;8.468;2022-09-03T04:04:59;1.47;;;1.37;;
11111;SDS011;5609;49.466;8.468;2022-09-03T04:07:26;1.53;;;1.30;;
11111;SDS011;5609;49.466;8.468;2022-09-03T04:09:53;1.73;;;1.30;;
11111;SDS011;5609;49.466;8.468;2022-09-03T04:12:20;3.30;;;1.50;;
11111;SDS011;5609;49.466;8.468;2022-09-03T04:14:46;2.23;;;1.43;;
11111;SDS011;5609;49.466;8.468;2022-09-03T04:17:13;1.57;;;1.23;;
11111;SDS011;5609;49.466;8.468;2022-09-03T04:19:41;1.23;;;1.20;;
11111;SDS011;5609;49.466;8.468;2022-09-03T04:22:09;1.90;;;1.30;;
11111;SDS011;5609;49.466;8.468;2022-09-03T04:24:38;1.47;;;1.30;;
11111;SDS011;5609;49.466;8.468;2022-09-03T04:27:04;1.87;;;1.50;;
11111;SDS011;5609;49.466;8.468;2022-09-03T04:29:31;2.83;;;1.60;;
11111;SDS011;5609;49.466;8.468;2022-09-03T04:31:59;1.60;;;1.50;;
11111;SDS011;5609;49.466;8.468;2022-09-03T04:34:45;2.33;;;1.40;;
11111;SDS011;5609;49.466;8.468;2022-09-03T04:37:11;2.03;;;1.20;;
11111;SDS011;5609;49.466;8.468;2022-09-03T04:39:40;1.77;;;1.40;;
11111;SDS011;5609;49.466;8.468;2022-09-03T04:42:07;1.93;;;1.40;;
11111;SDS011;5609;49.466;8.468;2022-09-03T04:44:33;2.13;;;1.33;;
11111;SDS011;5609;49.466;8.468;2022-09-03T04:47:02;2.90;;;1.37;;
11111;SDS011;5609;49.466;8.468;2022-09-03T04:49:29;1.97;;;1.20;;
11111;SDS011;5609;49.466;8.468;2022-09-03T04:51:57;1.87;;;1.30;;
11111;SDS011;5609;49.466;8.468;2022-09-03T04:54:24;1.87;;;1.37;;
11111;SDS011;5609;49.466;8.468;2022-09-03T04:56:51;1.83;;;1.40;;
11111;SDS011;5609;49.466;8.468;2022-09-03T04:59:18;2.60;;;1.30;;
11111;SDS011;5609;49.466;8.468;2022-09-03T05:01:45;1.93;;;1.20;;
11111;SDS011;5609;49.466;8.468;2022-09-03T05:04:11;2.20;;;1.20;;
11111;SDS011;5609;49.466;8.468;2022-09-03T05:06:38;1.57;;;1.33;;
11111;SDS011;5609;49.466;8.468;2022-09-03T05:09:06;2.70;;;1.20;;
11111;SDS011;5609;49.466;8.468;2022-09-03T05:11:33;1.57;;;1.47;;
11111;SDS011;5609;49.466;8.468;2022-09-03T05:14:00;1.93;;;1.47;;
11111;SDS011;5609;49.466;8.468;2022-09-03T05:16:27;1.90;;;1.20;;
11111;SDS011;5609;49.466;8.468;2022-09-03T05:18:55;2.97;;;1.30;;
11111;SDS011;5609;49.466;8.468;2022-09-03T05:21:25;1.90;;;1.37;;
11111;SDS011;5609;49.466;8.468;2022-09-03T05:23:52;1.80;;;1.30;;
11111;SDS011;5609;49.466;8.468;2022-09-03T05:26:21;2.27;;;1.37;;
11111;SDS011;5609;49.466;8.468;2022-09-03T05:28:52;2.10;;;1.40;;
11111;SDS011;5609;49.466;8.468;2022-09-03T05:31:20;1.40;;;1.30;;
11111;SDS011;5609;49.466;8.468;2022-09-03T05:33:48;1.80;;;1.40;;
11111;SDS011;5609;49.466;8.468;2022-09-03T05:36:17;1.57;;;1.47;;
11111;SDS011;5609;49.466;8.468;2022-09-03T05:38:46;1.50;;;1.40;;
11111;SDS011;5609;49.466;8.468;2022-09-03T05:41:13;1.60;;;1.40;;
11111;SDS011;5609;49.466;8.468;2022-09-03T05:43:43;1.50;;;1.40;;
11111;SDS011;5609;49.466;8.468;2022-09-03T05:46:10;1.93;;;1.33;;
11111;SDS011;5609;49.466;8.468;2022-09-03T05:48:39;1.53;;;1.40;;
11111;SDS011;5609;49.466;8.468;2022-09-03T05:51:07;2.17;;;1.50;;
11111;SDS011;5609;49.466;8.468;2022-09-03T05:53:36;1.97;;;1.20;;
11111;SDS011;5609;49.466;8.468;2022-09-03T05:56:05;2.00;;;1.70;;
11111;SDS011;5609;49.466;8.468;2022-09-03T05:58:35;2.30;;;1.47;;
11111;SDS011;5609;49.466;8.468;2022-09-03T06:01:09;2.60;;;1.40;;
11111;SDS011;5609;49.466;8.468;2022-09-03T06:03:38;1.63;;;1.53;;
11111;SDS011;5609;49.466;8.468;2022-09-03T06:06:05;1.67;;;1.30;;
11111;SDS011;5609;49.466;8.468;2022-09-03T06:08:33;1.60;;;1.33;;
11111;SDS011;5609;49.466;8.468;2022-09-03T06:11:02;1.77;;;1.40;;
11111;SDS011;5609;49.466;8.468;2022-09-03T06:13:29;1.87;;;1.20;;
11111;SDS011;5609;49.466;8.468;2022-09-03T06:15:56;2.60;;;1.50;;
11111;SDS011;5609;49.466;8.468;2022-09-03T06:18:25;1.40;;;1.30;;
11111;SDS011;5609;49.466;8.468;2022-09-03T06:20:53;1.43;;;1.33;;
11111;SDS011;5609;49.466;8.468;2022-09-03T06:23:20;1.20;;;1.10;;
11111;SDS011;5609;49.466;8.468;2022-09-03T06:25:47;1.60;;;1.40;;
11111;SDS011;5609;49.466;8.468;2022-09-03T06:28:14;1.87;;;1.30;;
11111;SDS011;5609;49.466;8.468;2022-09-03T06:30:40;3.57;;;1.50;;
11111;SDS011;5609;49.466;8.468;2022-09-03T06:33:07;1.73;;;1.57;;
11111;SDS011;5609;49.466;8.468;2022-09-03T06:35:36;2.43;;;1.50;;
11111;SDS011;5609;49.466;8.468;2022-09-03T06:38:03;2.50;;;1.40;;
11111;SDS011;5609;49.466;8.468;2022-09-03T06:40:30;2.23;;;1.33;;
11111;SDS011;5609;49.466;8.468;2022-09-03T06:42:57;2.90;;;1.60;;
11111;SDS011;5609;49.466;8.468;2022-09-03T06:45:24;2.60;;;1.70;;
11111;SDS011;5609;49.466;8.468;2022-09-03T06:47:52;2.83;;;1.87;;
11111;SDS011;5609;49.466;8.468;2022-09-03T06:50:19;3.43;;;1.80;;
11111;SDS011;5609;49.466;8.468;2022-09-03T06:52:50;4.03;;;2.10;;
11111;SDS011;5609;49.466;8.468;2022-09-03T06:55:19;2.90;;;1.80;;
11111;SDS011;5609;49.466;8.468;2022-09-03T06:57:46;2.40;;;1.83;;
11111;SDS011;5609;49.466;8.468;2022-09-03T07:00:14;1.97;;;1.77;;
11111;SDS011;5609;49.466;8.468;2022-09-03T07:02:41;3.20;;;2.17;;
11111;SDS011;5609;49.466;8.468;2022-09-03T07:05:09;2.00;;;1.80;;
11111;SDS011;5609;49.466;8.468;2022-09-03T07:07:36;1.70;;;1.60;;
11111;SDS011;5609;49.466;8.468;2022-09-03T07:10:04;3.17;;;1.97;;
11111;SDS011;5609;49.466;8.468;2022-09-03T07:12:32;2.27;;;1.70;;
11111;SDS011;5609;49.466;8.468;2022-09-03T07:15:01;1.60;;;1.50;;
11111;SDS011;5609;49.466;8.468;2022-09-03T07:17:28;2.70;;;1.80;;
11111;SDS011;5609;49.466;8.468;2022-09-03T07:19:55;2.43;;;1.90;;
11111;SDS011;5609;49.466;8.468;2022-09-03T07:22:22;2.50;;;1.77;;
11111;SDS011;5609;49.466;8.468;2022-09-03T07:24:49;2.13;;;1.80;;
11111;SDS011;5609;49.466;8.468;2022-09-03T07:27:17;2.40;;;2.10;;
11111;SDS011;5609;49.466;8.468;2022-09-03T07:29:44;3.40;;;1.90;;
11111;SDS011;5609;49.466;8.468;2022-09-03T07:32:11;2.97;;;1.90;;
11111;SDS011;5609;49.466;8.468;2022-09-03T07:34:37;2.70;;;1.90;;
11111;SDS011;5609;49.466;8.468;2022-09-03T07:37:04;2.80;;;1.97;;
11111;SDS011;5609;49.466;8.468;2022-09-03T07:39:31;1.97;;;1.83;;
11111;SDS011;5609;49.466;8.468;2022-09-03T07:41:58;2.80;;;2.13;;
11111;SDS011;5609;49.466;8.468;2022-09-03T07:44:26;2.20;;;1.90;;
11111;SDS011;5609;49.466;8.468;2022-09-03T07:46:53;2.63;;;2.10;;
11111;SDS011;5609;49.466;8.468;2022-09-03T07:49:20;4.37;;;2.00;;
11111;SDS011;5609;49.466;8.468;2022-09-03T07:51:47;3.67;;;2.07;;
11111;SDS011;5609;49.466;8.468;2022-09-03T07:54:16;3.63;;;2.13;;
11111;SDS011;5609;49.466;8.468;2022-09-03T07:56:44;3.53;;;2.30;;
11111;SDS011;5609;49.466;8.468;2022-09-03T07:59:11;2.43;;;2.20;;
11111;SDS011;5609;49.466;8.468;2022-09-03T08:01:39;2.40;;;1.93;;
11111;SDS011;5609;49.466;8.468;2022-09-03T08:04:06;3.93;;;2.50;;
11111;SDS011;5609;49.466;8.468;2022-09-03T08:06:33;4.33;;;3.00;;
11111;SDS011;5609;49.466;8.468;2022-09-03T08:09:00;3.00;;;2.70;;
11111;SDS011;5609;49.466;8.468;2022-09-03T08:11:28;4.23;;;2.73;;
11111;SDS011;5609;49.466;8.468;2022-09-03T08:13:57;2.67;;;2.43;;
11111;SDS011;5609;49.466;8.468;2022-09-03T08:16:27;2.60;;;2.40;;
11111;SDS011;5609;49.466;8.468;2022-09-03T08:18:56;2.80;;;2.33;;
11111;SDS011;5609;49.466;8.468;2022-09-03T08:21:23;3.60;;;3.30;;
11111;SDS011;5609;49.466;8.468;2022-09-03T08:23:51;4.30;;;3.90;;
11111;SDS011;5609;49.466;8.468;2022-09-03T08:26:21;4.47;;;3.67;;
11111;SDS011;5609;49.466;8.468;2022-09-03T08:28:48;3.23;;;2.77;;
11111;SDS011;5609;49.466;8.468;2022-09-03T08:31:18;3.60;;;3.30;;
11111;SDS011;5609;49.466;8.468;2022-09-03T08:33:47;4.20;;;3.60;;
11111;SDS011;5609;49.466;8.468;2022-09-03T08:36:17;4.10;;;3.73;;
11111;SDS011;5609;49.466;8.468;2022-09-03T08:38:46;4.53;;;3.57;;
11111;SDS011;5609;49.466;8.468;2022-09-03T08:41:18;4.03;;;3.60;;
11111;SDS011;5609;49.466;8.468;2022-09-03T08:46:44;4.13;;;3.27;;
11111;SDS011;5609;49.466;8.468;2022-09-03T08:49:19;3.80;;;3.20;;
11111;SDS011;5609;49.466;8.468;2022-09-03T08:51:50;3.50;;;3.20;;
11111;SDS011;5609;49.466;8.468;2022-09-03T08:54:22;4.50;;;3.10;;
11111;SDS011;5609;49.466;8.468;2022-09-03T08:56:53;3.73;;;2.77;;
11111;SDS011;5609;49.466;8.468;2022-09-03T08:59:23;3.70;;;3.33;;
11111;SDS011;5609;49.466;8.468;2022-09-03T09:01:51;6.60;;;3.57;;
11111;SDS011;5609;49.466;8.468;2022-09-03T09:04:25;3.07;;;2.63;;
11111;SDS011;5609;49.466;8.468;2022-09-03T09:07:04;3.57;;;3.20;;
11111;SDS011;5609;49.466;8.468;2022-09-03T09:09:38;3.50;;;3.20;;
11111;SDS011;5609;49.466;8.468;2022-09-03T09:12:14;3.90;;;2.60;;
11111;SDS011;5609;49.466;8.468;2022-09-03T09:14:51;3.60;;;2.67;;
11111;SDS011;5609;49.466;8.468;2022-09-03T09:17:34;3.10;;;2.80;;
11111;SDS011;5609;49.466;8.468;2022-09-03T09:20:17;3.10;;;2.80;;
11111;SDS011;5609;49.466;8.468;2022-09-03T09:22:51;4.60;;;2.83;;
11111;SDS011;5609;49.466;8.468;2022-09-03T09:25:21;3.97;;;2.70;;
11111;SDS011;5609;49.466;8.468;2022-09-03T09:27:51;4.00;;;2.83;;
11111;SDS011;5609;49.466;8.468;2022-09-03T09:30:22;5.37;;;2.80;;
11111;SDS011;5609;49.466;8.468;2022-09-03T09:32:48;3.57;;;2.70;;
11111;SDS011;5609;49.466;8.468;2022-09-03T09:35:16;4.03;;;2.70;;
11111;SDS011;5609;49.466;8.468;2022-09-03T09:37:47;3.23;;;2.70;;
11111;SDS011;5609;49.466;8.468;2022-09-03T09:40:23;4.90;;;2.40;;
11111;SDS011;5609;49.466;8.468;2022-09-03T09:43:01;3.70;;;2.57;;
11111;SDS011;5609;49.466;8.468;2022-09-03T09:45:32;3.47;;;2.80;;
11111;SDS011;5609;49.466;8.468;2022-09-03T09:47:59;3.23;;;2.60;;
11111;SDS011;5609;49.466;8.468;2022-09-03T09:50:28;3.10;;;2.20;;
11111;SDS011;5609;49.466;8.468;2022-09-03T09:53:03;2.67;;;2.43;;
11111;SDS011;5609;49.466;8.468;2022-09-03T09:55:47;3.77;;;2.70;;
11111;SDS011;5609;49.466;8.468;2022-09-03T09:58:15;2.50;;;2.30;;
11111;SDS011;5609;49.466;8.468;2022-09-03T10:00:53;2.73;;;2.53;;
11111;SDS011;5609;49.466;8.468;2022-09-03T10:03:22;2.33;;;2.13;;
11111;SDS011;5609;49.466;8.468;2022-09-03T10:05:56;2.60;;;2.40;;
11111;SDS011;5609;49.466;8.468;2022-09-03T10:08:48;3.30;;;3.00;;
11111;SDS011;5609;49.466;8.468;2022-09-03T10:11:16;2.40;;;2.20;;
11111;SDS011;5609;49.466;8.468;2022-09-03T10:13:44;3.60;;;3.30;;
11111;SDS011;5609;49.466;8.468;2022-09-03T10:16:16;2.80;;;2.60;;
11111;SDS011;5609;49.466;8.468;2022-09-03T10:18:51;3.47;;;2.97;;
11111;SDS011;5609;49.466;8.468;2022-09-03T10:21:28;4.03;;;2.60;;
11111;SDS011;5609;49.466;8.468;2022-09-03T10:24:00;2.93;;;2.63;;
11111;SDS011;5609;49.466;8.468;2022-09-03T10:26:39;3.23;;;2.83;;
11111;SDS011;5609;49.466;8.468;2022-09-03T10:29:09;3.30;;;3.00;;
11111;SDS011;5609;49.466;8.468;2022-09-03T10:31:40;3.63;;;3.10;;
11111;SDS011;5609;49.466;8.468;2022-09-03T10:34:21;2.93;;;2.67;;
11111;SDS011;5609;49.466;8.468;2022-09-03T10:37:00;3.37;;;3.07;;
11111;SDS011;5609;49.466;8.468;2022-09-03T10:39:39;4.30;;;3.20;;
11111;SDS011;5609;49.466;8.468;2022-09-03T10:42:18;3.50;;;3.20;;
11111;SDS011;5609;49.466;8.468;2022-09-03T10:44:58;4.00;;;3.60;;
11111;SDS011;5609;49.466;8.468;2022-09-03T10:47:39;3.00;;;2.70;;
11111;SDS011;5609;49.466;8.468;2022-09-03T10:50:25;2.83;;;2.60;;
11111;SDS011;5609;49.466;8.468;2022-09-03T10:52:59;3.47;;;3.17;;
11111;SDS011;5609;49.466;8.468;2022-09-03T10:55:38;6.07;;;3.30;;
11111;SDS011;5609;49.466;8.468;2022-09-03T10:58:18;3.30;;;3.00;;
11111;SDS011;5609;49.466;8.468;2022-09-03T11:00:59;2.90;;;2.70;;
11111;SDS011;5609;49.466;8.468;2022-09-03T11:03:35;3.70;;;3.20;;
11111;SDS011;5609;49.466;8.468;2022-09-03T11:06:10;3.80;;;3.40;;
11111;SDS011;5609;49.466;8.468;2022-09-03T11:08:41;3.43;;;3.13;;
11111;SDS011;5609;49.466;8.468;2022-09-03T11:11:12;3.00;;;2.53;;
11111;SDS011;5609;49.466;8.468;2022-09-03T11:13:45;4.60;;;2.90;;
11111;SDS011;5609;49.466;8.468;2022-09-03T11:16:16;3.27;;;2.97;;
11111;SDS011;5609;49.466;8.468;2022-09-03T11:18:46;3.13;;;2.80;;
11111;SDS011;5609;49.466;8.468;2022-09-03T11:21:16;3.03;;;2.83;;
11111;SDS011;5609;49.466;8.468;2022-09-03T11:23:48;3.80;;;2.90;;
11111;SDS011;5609;49.466;8.468;2022-09-03T11:26:31;3.80;;;2.57;;
11111;SDS011;5609;49.466;8.468;2022-09-03T11:29:00;2.90;;;2.70;;
11111;SDS011;5609;49.466;8.468;2022-09-03T11:31:33;2.93;;;2.73;;
11111;SDS011;5609;49.466;8.468;2022-09-03T11:34:12;2.73;;;2.53;;
11111;SDS011;5609;49.466;8.468;2022-09-03T11:36:41;3.57;;;3.00;;
11111;SDS011;5609;49.466;8.468;2022-09-03T11:39:11;3.00;;;2.70;;
11111;SDS011;5609;49.466;8.468;2022-09-03T11:41:45;2.70;;;2.50;;
11111;SDS011;5609;49.466;8.468;2022-09-03T11:44:23;2.40;;;2.10;;
11111;SDS011;5609;49.466;8.468;2022-09-03T11:47:00;1.47;;;1.40;;
11111;SDS011;5609;49.466;8.468;2022-09-03T11:49:27;1.40;;;1.30;;
11111;SDS011;5609;49.466;8.468;2022-09-03T11:51:57;1.33;;;1.23;;
11111;SDS011;5609;49.466;8.468;2022-09-03T11:54:26;1.70;;;1.60;;
11111;SDS011;5609;49.466;8.468;2022-09-03T11:57:05;1.80;;;1.70;;
11111;SDS011;5609;49.466;8.468;2022-09-03T11:59:37;1.87;;;1.73;;
11111;SDS011;5609;49.466;8.468;2022-09-03T12:02:07;2.17;;;1.73;;
11111;SDS011;5609;49.466;8.468;2022-09-03T12:04:43;1.70;;;1.60;;
11111;SDS011;5609;49.466;8.468;2022-09-03T12:10:12;1.70;;;1.60;;
11111;SDS011;5609;49.466;8.468;2022-09-03T12:13:02;1.13;;;1.03;;
11111;SDS011;5609;49.466;8.468;2022-09-03T12:18:34;1.30;;;1.20;;
11111;SDS011;5609;49.466;8.468;2022-09-03T12:21:03;1.50;;;1.40;;
11111;SDS011;5609;49.466;8.468;2022-09-03T12:23:33;1.83;;;1.40;;
11111;SDS011;5609;49.466;8.468;2022-09-03T12:26:07;1.80;;;1.60;;
11111;SDS011;5609;49.466;8.468;2022-09-03T12:28:40;1.70;;;1.60;;
11111;SDS011;5609;49.466;8.468;2022-09-03T12:31:09;1.20;;;1.10;;
11111;SDS011;5609;49.466;8.468;2022-09-03T12:33:49;1.70;;;1.60;;
11111;SDS011;5609;49.466;8.468;2022-09-03T12:36:18;2.20;;;1.50;;
11111;SDS011;5609;49.466;8.468;2022-09-03T12:38:45;1.60;;;1.50;;
11111;SDS011;5609;49.466;8.468;2022-09-03T12:41:19;1.50;;;1.40;;
11111;SDS011;5609;49.466;8.468;2022-09-03T12:43:53;1.60;;;1.50;;
11111;SDS011;5609;49.466;8.468;2022-09-03T12:46:21;1.50;;;1.40;;
11111;SDS011;5609;49.466;8.468;2022-09-03T12:48:56;2.03;;;1.73;;
11111;SDS011;5609;49.466;8.468;2022-09-03T12:51:30;1.67;;;1.57;;
11111;SDS011;5609;49.466;8.468;2022-09-03T12:53:58;1.40;;;1.30;;
11111;SDS011;5609;49.466;8.468;2022-09-03T12:56:26;1.40;;;1.30;;
11111;SDS011;5609;49.466;8.468;2022-09-03T12:58:59;1.50;;;1.30;;
11111;SDS011;5609;49.466;8.468;2022-09-03T13:01:28;1.60;;;1.50;;
11111;SDS011;5609;49.466;8.468;2022-09-03T13:03:57;1.60;;;1.50;;
11111;SDS011;5609;49.466;8.468;2022-09-03T13:06:28;1.50;;;1.40;;
11111;SDS011;5609;49.466;8.468;2022-09-03T13:08:58;2.20;;;2.00;;
11111;SDS011;5609;49.466;8.468;2022-09-03T13:11:26;1.67;;;1.57;;
11111;SDS011;5609;49.466;8.468;2022-09-03T13:13:55;1.60;;;1.50;;
11111;SDS011;5609;49.466;8.468;2022-09-03T13:16:33;1.83;;;1.73;;
11111;SDS011;5609;49.466;8.468;2022-09-03T13:19:07;1.90;;;1.80;;
11111;SDS011;5609;49.466;8.468;2022-09-03T13:21:39;2.13;;;1.80;;
11111;SDS011;5609;49.466;8.468;2022-09-03T13:24:12;2.20;;;2.00;;
11111;SDS011;5609;49.466;8.468;2022-09-03T13:26:46;2.30;;;2.10;;
11111;SDS011;5609;49.466;8.468;2022-09-03T13:29:21;2.17;;;2.03;;
11111;SDS011;5609;49.466;8.468;2022-09-03T13:31:52;2.07;;;1.93;;
11111;SDS011;5609;49.466;8.468;2022-09-03T13:34:21;2.40;;;2.20;;
11111;SDS011;5609;49.466;8.468;2022-09-03T13:36:50;2.63;;;2.43;;
11111;SDS011;5609;49.466;8.468;2022-09-03T13:39:21;2.73;;;2.33;;
11111;SDS011;5609;49.466;8.468;2022-09-03T13:41:51;2.40;;;2.20;;
11111;SDS011;5609;49.466;8.468;2022-09-03T13:44:21;3.70;;;3.17;;
11111;SDS011;5609;49.466;8.468;2022-09-03T13:46:53;2.60;;;2.40;;
11111;SDS011;5609;49.466;8.468;2022-09-03T13:49:26;2.87;;;2.60;;
11111;SDS011;5609;49.466;8.468;2022-09-03T13:52:15;2.60;;;2.40;;
11111;SDS011;5609;49.466;8.468;2022-09-03T13:54:48;3.60;;;2.80;;
11111;SDS011;5609;49.466;8.468;2022-09-03T13:57:20;2.70;;;2.50;;
11111;SDS011;5609;49.466;8.468;2022-09-03T13:59:50;2.80;;;2.60;;
11111;SDS011;5609;49.466;8.468;2022-09-03T14:02:21;3.43;;;3.10;;
11111;SDS011;5609;49.466;8.468;2022-09-03T14:04:57;3.43;;;2.73;;
11111;SDS011;5609;49.466;8.468;2022-09-03T14:07:26;3.37;;;3.07;;
11111;SDS011;5609;49.466;8.468;2022-09-03T14:10:10;3.47;;;3.17;;
11111;SDS011;5609;49.466;8.468;2022-09-03T14:12:48;3.07;;;2.83;;
11111;SDS011;5609;49.466;8.468;2022-09-03T14:15:21;3.40;;;3.10;;
11111;SDS011;5609;49.466;8.468;2022-09-03T14:17:57;3.10;;;2.80;;
11111;SDS011;5609;49.466;8.468;2022-09-03T14:20:28;3.10;;;2.80;;
11111;SDS011;5609;49.466;8.468;2022-09-03T14:23:01;3.40;;;2.70;;
11111;SDS011;5609;49.466;8.468;2022-09-03T14:25:30;3.07;;;2.77;;
11111;SDS011;5609;49.466;8.468;2022-09-03T14:28:11;3.07;;;2.87;;
11111;SDS011;5609;49.466;8.468;2022-09-03T14:30:41;2.80;;;2.60;;
11111;SDS011;5609;49.466;8.468;2022-09-03T14:33:17;2.97;;;2.57;;
11111;SDS011;5609;49.466;8.468;2022-09-03T14:35:52;2.30;;;2.20;;
11111;SDS011;5609;49.466;8.468;2022-09-03T14:38:37;2.60;;;2.40;;
11111;SDS011;5609;49.466;8.468;2022-09-03T14:41:17;2.33;;;2.23;;
11111;SDS011;5609;49.466;8.468;2022-09-03T14:44:00;2.73;;;2.20;;
11111;SDS011;5609;49.466;8.468;2022-09-03T14:46:54;2.50;;;2.30;;
11111;SDS011;5609;49.466;8.468;2022-09-03T14:49:41;2.37;;;2.10;;
11111;SDS011;5609;49.466;8.468;2022-09-03T14:55:09;2.90;;;2.60;;
11111;SDS011;5609;49.466;8.468;2022-09-03T14:57:44;2.90;;;2.70;;
11111;SDS011;5609;49.466;8.468;2022-09-03T15:00:21;2.90;;;2.70;;
11111;SDS011;5609;49.466;8.468;2022-09-03T15:03:01;2.80;;;2.60;;
11111;SDS011;5609;49.466;8.468;2022-09-03T15:05:50;2.90;;;2.60;;
11111;SDS011;5609;49.466;8.468;2022-09-03T15:08:32;3.13;;;2.83;;
11111;SDS011;5609;49.466;8.468;2022-09-03T15:11:14;3.50;;;3.23;;
11111;SDS011;5609;49.466;8.468;2022-09-03T15:13:44;2.87;;;2.67;;
11111;SDS011;5609;49.466;8.468;2022-09-03T15:22:11;3.43;;;2.90;;
11111;SDS011;5609;49.466;8.468;2022-09-03T15:24:46;3.30;;;2.50;;
11111;SDS011;5609;49.466;8.468;2022-09-03T15:27:30;2.80;;;2.50;;
11111;SDS011;5609;49.466;8.468;2022-09-03T15:30:10;2.80;;;2.60;;
11111;SDS011;5609;49.466;8.468;2022-09-03T15:32:45;3.10;;;2.50;;
11111;SDS011;5609;49.466;8.468;2022-09-03T15:35:25;2.97;;;2.53;;
11111;SDS011;5609;49.466;8.468;2022-09-03T15:38:00;2.90;;;2.70;;
11111;SDS011;5609;49.466;8.468;2022-09-03T15:40:31;3.07;;;2.80;;
11111;SDS011;5609;49.466;8.468;2022-09-03T15:43:03;3.03;;;2.80;;
11111;SDS011;5609;49.466;8.468;2022-09-03T15:45:35;4.43;;;3.07;;
11111;SDS011;5609;49.466;8.468;2022-09-03T15:48:07;3.60;;;3.00;;
11111;SDS011;5609;49.466;8.468;2022-09-03T15:50:47;3.00;;;2.70;;